sensor_id;sensor_type;location;lat;lon;timestamp;P1;durP1;ratioP1;P2;durP2;ratioP2
62707;SDS011;48769;51.624;5.886;2023-04-12T00:01:32;12.68;;;3.05;;
62707;SDS011;48769;51.624;5.886;2023-04-12T00:03:58;13.35;;;3.05;;
62707;SDS011;48769;51.624;5.886;2023-04-12T00:06:23;11.05;;;2.65;;
62707;SDS011;48769;51.624;5.886;2023-04-12T00:08:49;9.73;;;2.78;;
62707;SDS011;48769;51.624;5.886;2023-04-12T00:11:15;9.18;;;2.60;;
62707;SDS011;48769;51.624;5.886;2023-04-12T00:13:41;7.50;;;2.45;;
62707;SDS011;48769;51.624;5.886;2023-04-12T00:16:06;10.60;;;2.83;;
62707;SDS011;48769;51.624;5.886;2023-04-12T00:18:33;11.15;;;2.67;;
62707;SDS011;48769;51.624;5.886;2023-04-12T00:20:58;9.82;;;2.13;;
62707;SDS011;48769;51.624;5.886;2023-04-12T00:23:23;13.60;;;3.00;;
62707;SDS011;48769;51.624;5.886;2023-04-12T00:25:49;11.82;;;2.58;;
62707;SDS011;48769;51.624;5.886;2023-04-12T00:28:14;9.90;;;2.83;;
62707;SDS011;48769;51.624;5.886;2023-04-12T00:30:39;9.32;;;2.10;;
62707;SDS011;48769;51.624;5.886;2023-04-12T00:33:05;8.63;;;2.17;;
62707;SDS011;48769;51.624;5.886;2023-04-12T00:35:31;9.13;;;2.22;;
62707;SDS011;48769;51.624;5.886;2023-04-12T00:37:56;13.23;;;3.25;;
62707;SDS011;48769;51.624;5.886;2023-04-12T00:40:21;7.97;;;2.75;;
62707;SDS011;48769;51.624;5.886;2023-04-12T00:42:47;8.25;;;2.67;;
62707;SDS011;48769;51.624;5.886;2023-04-12T00:45:12;12.10;;;2.20;;
62707;SDS011;48769;51.624;5.886;2023-04-12T00:47:38;8.70;;;1.92;;
62707;SDS011;48769;51.624;5.886;2023-04-12T00:50:07;9.13;;;2.30;;
62707;SDS011;48769;51.624;5.886;2023-04-12T00:52:33;5.53;;;1.92;;
62707;SDS011;48769;51.624;5.886;2023-04-12T00:55:02;7.35;;;2.30;;
62707;SDS011;48769;51.624;5.886;2023-04-12T00:57:33;7.65;;;2.33;;
62707;SDS011;48769;51.624;5.886;2023-04-12T01:00:05;7.15;;;2.22;;
62707;SDS011;48769;51.624;5.886;2023-04-12T01:02:37;11.07;;;2.38;;
62707;SDS011;48769;51.624;5.886;2023-04-12T01:05:05;16.55;;;2.83;;
62707;SDS011;48769;51.624;5.886;2023-04-12T01:13:02;10.85;;;2.55;;
62707;SDS011;48769;51.624;5.886;2023-04-12T01:15:36;7.75;;;3.20;;
62707;SDS011;48769;51.624;5.886;2023-04-12T01:18:15;11.90;;;3.60;;
62707;SDS011;48769;51.624;5.886;2023-04-12T01:21:22;9.90;;;3.10;;
62707;SDS011;48769;51.624;5.886;2023-04-12T01:23:57;8.02;;;3.08;;
62707;SDS011;48769;51.624;5.886;2023-04-12T01:29:12;8.48;;;2.90;;
62707;SDS011;48769;51.624;5.886;2023-04-12T01:31:41;10.07;;;2.75;;
62707;SDS011;48769;51.624;5.886;2023-04-12T01:34:30;8.75;;;2.63;;
62707;SDS011;48769;51.624;5.886;2023-04-12T01:37:00;12.45;;;2.88;;
62707;SDS011;48769;51.624;5.886;2023-04-12T01:39:26;6.93;;;2.28;;
62707;SDS011;48769;51.624;5.886;2023-04-12T01:41:57;8.10;;;2.60;;
62707;SDS011;48769;51.624;5.886;2023-04-12T01:44:22;9.13;;;2.50;;
62707;SDS011;48769;51.624;5.886;2023-04-12T01:46:47;6.90;;;2.70;;
62707;SDS011;48769;51.624;5.886;2023-04-12T01:49:14;9.88;;;2.35;;
62707;SDS011;48769;51.624;5.886;2023-04-12T01:54:12;7.10;;;2.88;;
62707;SDS011;48769;51.624;5.886;2023-04-12T01:56:43;6.18;;;2.20;;
62707;SDS011;48769;51.624;5.886;2023-04-12T01:59:14;8.27;;;2.75;;
62707;SDS011;48769;51.624;5.886;2023-04-12T02:01:41;7.15;;;2.42;;
62707;SDS011;48769;51.624;5.886;2023-04-12T02:04:09;10.00;;;2.60;;
62707;SDS011;48769;51.624;5.886;2023-04-12T02:06:35;8.82;;;2.97;;
62707;SDS011;48769;51.624;5.886;2023-04-12T02:09:02;12.73;;;2.88;;
62707;SDS011;48769;51.624;5.886;2023-04-12T02:11:29;5.97;;;2.40;;
62707;SDS011;48769;51.624;5.886;2023-04-12T02:13:55;8.75;;;2.58;;
62707;SDS011;48769;51.624;5.886;2023-04-12T02:16:20;9.75;;;2.45;;
62707;SDS011;48769;51.624;5.886;2023-04-12T02:18:47;6.88;;;2.33;;
62707;SDS011;48769;51.624;5.886;2023-04-12T02:21:15;10.48;;;2.50;;
62707;SDS011;48769;51.624;5.886;2023-04-12T02:23:41;7.45;;;2.80;;
62707;SDS011;48769;51.624;5.886;2023-04-12T02:26:09;13.05;;;2.63;;
62707;SDS011;48769;51.624;5.886;2023-04-12T02:28:35;5.95;;;2.00;;
62707;SDS011;48769;51.624;5.886;2023-04-12T02:31:02;8.18;;;2.33;;
62707;SDS011;48769;51.624;5.886;2023-04-12T02:33:31;8.32;;;2.40;;
62707;SDS011;48769;51.624;5.886;2023-04-12T02:35:57;8.88;;;2.47;;
62707;SDS011;48769;51.624;5.886;2023-04-12T02:38:23;10.35;;;2.25;;
62707;SDS011;48769;51.624;5.886;2023-04-12T02:40:48;8.48;;;2.17;;
62707;SDS011;48769;51.624;5.886;2023-04-12T02:43:14;4.82;;;1.75;;
62707;SDS011;48769;51.624;5.886;2023-04-12T02:45:39;6.35;;;2.00;;
62707;SDS011;48769;51.624;5.886;2023-04-12T02:48:05;8.13;;;3.28;;
62707;SDS011;48769;51.624;5.886;2023-04-12T02:50:30;7.05;;;2.38;;
62707;SDS011;48769;51.624;5.886;2023-04-12T02:52:55;7.13;;;2.20;;
62707;SDS011;48769;51.624;5.886;2023-04-12T02:55:21;8.55;;;2.20;;
62707;SDS011;48769;51.624;5.886;2023-04-12T02:57:46;6.07;;;2.50;;
62707;SDS011;48769;51.624;5.886;2023-04-12T03:00:13;8.32;;;2.10;;
62707;SDS011;48769;51.624;5.886;2023-04-12T03:02:41;4.60;;;2.35;;
62707;SDS011;48769;51.624;5.886;2023-04-12T03:05:07;8.20;;;1.98;;
62707;SDS011;48769;51.624;5.886;2023-04-12T03:07:32;14.02;;;3.17;;
62707;SDS011;48769;51.624;5.886;2023-04-12T03:09:58;7.30;;;1.80;;
62707;SDS011;48769;51.624;5.886;2023-04-12T03:12:23;5.70;;;2.08;;
62707;SDS011;48769;51.624;5.886;2023-04-12T03:14:48;6.50;;;2.13;;
62707;SDS011;48769;51.624;5.886;2023-04-12T03:17:14;6.95;;;2.30;;
62707;SDS011;48769;51.624;5.886;2023-04-12T03:19:39;5.57;;;2.17;;
62707;SDS011;48769;51.624;5.886;2023-04-12T03:22:05;6.85;;;2.67;;
62707;SDS011;48769;51.624;5.886;2023-04-12T03:24:30;6.75;;;2.30;;
62707;SDS011;48769;51.624;5.886;2023-04-12T03:26:58;6.65;;;1.67;;
62707;SDS011;48769;51.624;5.886;2023-04-12T03:29:24;5.55;;;2.13;;
62707;SDS011;48769;51.624;5.886;2023-04-12T03:31:49;3.83;;;2.00;;
62707;SDS011;48769;51.624;5.886;2023-04-12T03:34:14;6.35;;;2.90;;
62707;SDS011;48769;51.624;5.886;2023-04-12T03:36:40;5.68;;;1.75;;
62707;SDS011;48769;51.624;5.886;2023-04-12T03:39:05;9.23;;;2.55;;
62707;SDS011;48769;51.624;5.886;2023-04-12T03:41:31;5.60;;;2.00;;
62707;SDS011;48769;51.624;5.886;2023-04-12T03:43:56;5.70;;;2.10;;
62707;SDS011;48769;51.624;5.886;2023-04-12T03:46:21;9.52;;;2.53;;
62707;SDS011;48769;51.624;5.886;2023-04-12T03:48:47;7.38;;;3.17;;
62707;SDS011;48769;51.624;5.886;2023-04-12T03:51:14;11.30;;;2.38;;
62707;SDS011;48769;51.624;5.886;2023-04-12T03:53:40;6.35;;;2.83;;
62707;SDS011;48769;51.624;5.886;2023-04-12T03:56:05;8.65;;;2.78;;
62707;SDS011;48769;51.624;5.886;2023-04-12T03:58:31;7.47;;;2.17;;
62707;SDS011;48769;51.624;5.886;2023-04-12T04:00:58;5.95;;;2.33;;
62707;SDS011;48769;51.624;5.886;2023-04-12T04:03:30;16.70;;;2.75;;
62707;SDS011;48769;51.624;5.886;2023-04-12T04:05:59;12.68;;;2.38;;
62707;SDS011;48769;51.624;5.886;2023-04-12T04:08:26;4.93;;;2.67;;
62707;SDS011;48769;51.624;5.886;2023-04-12T04:10:52;5.07;;;2.30;;
62707;SDS011;48769;51.624;5.886;2023-04-12T04:13:18;4.45;;;2.03;;
62707;SDS011;48769;51.624;5.886;2023-04-12T04:15:44;10.10;;;2.47;;
62707;SDS011;48769;51.624;5.886;2023-04-12T04:18:10;7.70;;;2.33;;
62707;SDS011;48769;51.624;5.886;2023-04-12T04:20:35;8.80;;;2.80;;
62707;SDS011;48769;51.624;5.886;2023-04-12T04:23:01;10.40;;;2.72;;
62707;SDS011;48769;51.624;5.886;2023-04-12T04:25:26;12.75;;;2.83;;
62707;SDS011;48769;51.624;5.886;2023-04-12T04:27:55;6.05;;;2.75;;
62707;SDS011;48769;51.624;5.886;2023-04-12T04:30:20;5.57;;;2.30;;
62707;SDS011;48769;51.624;5.886;2023-04-12T04:32:47;5.78;;;2.67;;
62707;SDS011;48769;51.624;5.886;2023-04-12T04:35:12;12.20;;;2.65;;
62707;SDS011;48769;51.624;5.886;2023-04-12T04:37:40;7.53;;;2.83;;
62707;SDS011;48769;51.624;5.886;2023-04-12T04:40:06;11.98;;;2.63;;
62707;SDS011;48769;51.624;5.886;2023-04-12T04:42:35;7.30;;;2.58;;
62707;SDS011;48769;51.624;5.886;2023-04-12T04:45:02;10.13;;;2.85;;
62707;SDS011;48769;51.624;5.886;2023-04-12T04:47:36;5.30;;;2.72;;
62707;SDS011;48769;51.624;5.886;2023-04-12T04:50:01;10.27;;;3.38;;
62707;SDS011;48769;51.624;5.886;2023-04-12T04:52:27;8.55;;;3.45;;
62707;SDS011;48769;51.624;5.886;2023-04-12T04:54:52;10.43;;;2.67;;
62707;SDS011;48769;51.624;5.886;2023-04-12T04:57:21;9.55;;;3.28;;
62707;SDS011;48769;51.624;5.886;2023-04-12T04:59:46;7.30;;;2.95;;
62707;SDS011;48769;51.624;5.886;2023-04-12T05:02:12;9.60;;;3.30;;
62707;SDS011;48769;51.624;5.886;2023-04-12T05:04:37;9.45;;;3.20;;
62707;SDS011;48769;51.624;5.886;2023-04-12T05:07:02;6.57;;;2.75;;
62707;SDS011;48769;51.624;5.886;2023-04-12T05:09:28;6.22;;;2.88;;
62707;SDS011;48769;51.624;5.886;2023-04-12T05:11:53;9.70;;;3.05;;
62707;SDS011;48769;51.624;5.886;2023-04-12T05:14:18;6.65;;;3.50;;
62707;SDS011;48769;51.624;5.886;2023-04-12T05:16:44;12.52;;;3.95;;
62707;SDS011;48769;51.624;5.886;2023-04-12T05:19:09;13.00;;;3.20;;
62707;SDS011;48769;51.624;5.886;2023-04-12T05:21:35;8.40;;;3.55;;
62707;SDS011;48769;51.624;5.886;2023-04-12T05:24:00;7.68;;;3.38;;
62707;SDS011;48769;51.624;5.886;2023-04-12T05:26:25;16.60;;;4.35;;
62707;SDS011;48769;51.624;5.886;2023-04-12T05:28:51;6.68;;;3.40;;
62707;SDS011;48769;51.624;5.886;2023-04-12T05:31:16;8.32;;;3.90;;
62707;SDS011;48769;51.624;5.886;2023-04-12T05:33:42;9.00;;;3.10;;
62707;SDS011;48769;51.624;5.886;2023-04-12T05:36:08;13.63;;;3.25;;
62707;SDS011;48769;51.624;5.886;2023-04-12T05:38:34;6.53;;;3.20;;
62707;SDS011;48769;51.624;5.886;2023-04-12T05:41:00;10.23;;;2.90;;
62707;SDS011;48769;51.624;5.886;2023-04-12T05:43:28;6.43;;;3.78;;
62707;SDS011;48769;51.624;5.886;2023-04-12T05:45:54;10.90;;;3.63;;
62707;SDS011;48769;51.624;5.886;2023-04-12T05:48:19;12.23;;;3.58;;
62707;SDS011;48769;51.624;5.886;2023-04-12T05:50:52;8.52;;;3.70;;
62707;SDS011;48769;51.624;5.886;2023-04-12T05:53:18;10.07;;;3.90;;
62707;SDS011;48769;51.624;5.886;2023-04-12T05:55:43;6.28;;;3.22;;
62707;SDS011;48769;51.624;5.886;2023-04-12T05:58:09;9.77;;;3.20;;
62707;SDS011;48769;51.624;5.886;2023-04-12T06:00:35;6.88;;;3.50;;
62707;SDS011;48769;51.624;5.886;2023-04-12T06:03:01;5.97;;;3.45;;
62707;SDS011;48769;51.624;5.886;2023-04-12T06:05:27;9.00;;;3.47;;
62707;SDS011;48769;51.624;5.886;2023-04-12T06:07:53;6.65;;;3.65;;
62707;SDS011;48769;51.624;5.886;2023-04-12T06:10:19;9.15;;;3.78;;
62707;SDS011;48769;51.624;5.886;2023-04-12T06:12:44;5.88;;;3.55;;
62707;SDS011;48769;51.624;5.886;2023-04-12T06:15:10;5.63;;;3.90;;
62707;SDS011;48769;51.624;5.886;2023-04-12T06:17:35;7.07;;;4.20;;
62707;SDS011;48769;51.624;5.886;2023-04-12T06:20:01;11.45;;;4.50;;
62707;SDS011;48769;51.624;5.886;2023-04-12T06:22:30;9.63;;;4.03;;
62707;SDS011;48769;51.624;5.886;2023-04-12T06:24:55;7.70;;;4.47;;
62707;SDS011;48769;51.624;5.886;2023-04-12T06:27:22;8.93;;;4.72;;
62707;SDS011;48769;51.624;5.886;2023-04-12T06:29:47;18.52;;;5.15;;
62707;SDS011;48769;51.624;5.886;2023-04-12T06:32:12;10.13;;;5.72;;
62707;SDS011;48769;51.624;5.886;2023-04-12T06:34:38;10.18;;;5.55;;
62707;SDS011;48769;51.624;5.886;2023-04-12T06:37:03;9.52;;;4.80;;
62707;SDS011;48769;51.624;5.886;2023-04-12T06:39:29;9.88;;;5.25;;
62707;SDS011;48769;51.624;5.886;2023-04-12T06:41:54;6.90;;;4.97;;
62707;SDS011;48769;51.624;5.886;2023-04-12T06:44:21;13.07;;;6.10;;
62707;SDS011;48769;51.624;5.886;2023-04-12T06:46:46;8.18;;;5.45;;
62707;SDS011;48769;51.624;5.886;2023-04-12T06:49:12;10.05;;;5.40;;
62707;SDS011;48769;51.624;5.886;2023-04-12T06:51:37;6.75;;;4.90;;
62707;SDS011;48769;51.624;5.886;2023-04-12T06:54:02;8.23;;;5.88;;
62707;SDS011;48769;51.624;5.886;2023-04-12T06:56:28;11.52;;;6.70;;
62707;SDS011;48769;51.624;5.886;2023-04-12T06:58:53;6.07;;;5.45;;
62707;SDS011;48769;51.624;5.886;2023-04-12T07:01:18;8.50;;;6.15;;
62707;SDS011;48769;51.624;5.886;2023-04-12T07:03:44;8.30;;;6.07;;
62707;SDS011;48769;51.624;5.886;2023-04-12T07:06:09;8.95;;;6.93;;
62707;SDS011;48769;51.624;5.886;2023-04-12T07:08:35;9.88;;;6.90;;
62707;SDS011;48769;51.624;5.886;2023-04-12T07:11:01;14.35;;;6.82;;
62707;SDS011;48769;51.624;5.886;2023-04-12T07:13:27;10.02;;;7.60;;
62707;SDS011;48769;51.624;5.886;2023-04-12T07:15:52;9.43;;;6.97;;
62707;SDS011;48769;51.624;5.886;2023-04-12T07:18:18;8.27;;;7.32;;
62707;SDS011;48769;51.624;5.886;2023-04-12T07:20:45;9.32;;;7.70;;
62707;SDS011;48769;51.624;5.886;2023-04-12T07:23:12;10.30;;;8.10;;
62707;SDS011;48769;51.624;5.886;2023-04-12T07:25:38;12.75;;;7.40;;
62707;SDS011;48769;51.624;5.886;2023-04-12T07:28:03;11.27;;;6.88;;
62707;SDS011;48769;51.624;5.886;2023-04-12T07:30:29;11.50;;;8.23;;
62707;SDS011;48769;51.624;5.886;2023-04-12T07:32:55;10.55;;;7.50;;
62707;SDS011;48769;51.624;5.886;2023-04-12T07:35:20;9.75;;;7.82;;
62707;SDS011;48769;51.624;5.886;2023-04-12T07:37:45;9.90;;;7.50;;
62707;SDS011;48769;51.624;5.886;2023-04-12T07:40:11;12.23;;;7.55;;
62707;SDS011;48769;51.624;5.886;2023-04-12T07:42:36;7.88;;;7.05;;
62707;SDS011;48769;51.624;5.886;2023-04-12T07:45:02;10.20;;;7.30;;
62707;SDS011;48769;51.624;5.886;2023-04-12T07:47:27;16.08;;;7.40;;
62707;SDS011;48769;51.624;5.886;2023-04-12T07:49:53;8.40;;;6.72;;
62707;SDS011;48769;51.624;5.886;2023-04-12T07:52:19;10.70;;;7.35;;
62707;SDS011;48769;51.624;5.886;2023-04-12T07:54:44;11.43;;;8.05;;
62707;SDS011;48769;51.624;5.886;2023-04-12T07:57:09;11.95;;;9.23;;
62707;SDS011;48769;51.624;5.886;2023-04-12T07:59:35;12.15;;;9.13;;
62707;SDS011;48769;51.624;5.886;2023-04-12T08:02:00;9.82;;;6.47;;
62707;SDS011;48769;51.624;5.886;2023-04-12T08:04:26;9.80;;;6.97;;
62707;SDS011;48769;51.624;5.886;2023-04-12T08:06:52;7.85;;;5.72;;
62707;SDS011;48769;51.624;5.886;2023-04-12T08:09:19;11.30;;;5.93;;
62707;SDS011;48769;51.624;5.886;2023-04-12T08:11:44;12.07;;;5.30;;
62707;SDS011;48769;51.624;5.886;2023-04-12T08:14:11;11.00;;;5.20;;
62707;SDS011;48769;51.624;5.886;2023-04-12T08:16:37;13.55;;;5.97;;
62707;SDS011;48769;51.624;5.886;2023-04-12T08:19:03;10.45;;;4.93;;
62707;SDS011;48769;51.624;5.886;2023-04-12T08:21:31;11.18;;;5.53;;
62707;SDS011;48769;51.624;5.886;2023-04-12T08:24:10;9.48;;;4.82;;
62707;SDS011;48769;51.624;5.886;2023-04-12T08:26:38;12.52;;;6.07;;
62707;SDS011;48769;51.624;5.886;2023-04-12T08:29:04;14.32;;;5.95;;
62707;SDS011;48769;51.624;5.886;2023-04-12T08:31:29;12.45;;;6.40;;
62707;SDS011;48769;51.624;5.886;2023-04-12T08:33:54;18.02;;;5.80;;
62707;SDS011;48769;51.624;5.886;2023-04-12T08:36:20;14.73;;;6.07;;
62707;SDS011;48769;51.624;5.886;2023-04-12T08:38:46;13.55;;;6.35;;
62707;SDS011;48769;51.624;5.886;2023-04-12T08:41:16;14.20;;;5.80;;
62707;SDS011;48769;51.624;5.886;2023-04-12T08:43:42;18.45;;;6.22;;
62707;SDS011;48769;51.624;5.886;2023-04-12T08:46:14;15.05;;;6.03;;
62707;SDS011;48769;51.624;5.886;2023-04-12T08:48:41;13.43;;;6.72;;
62707;SDS011;48769;51.624;5.886;2023-04-12T08:51:10;23.27;;;6.95;;
62707;SDS011;48769;51.624;5.886;2023-04-12T08:53:38;14.00;;;6.80;;
62707;SDS011;48769;51.624;5.886;2023-04-12T08:56:05;17.45;;;6.53;;
62707;SDS011;48769;51.624;5.886;2023-04-12T08:58:33;22.27;;;6.97;;
62707;SDS011;48769;51.624;5.886;2023-04-12T09:00:59;17.25;;;7.05;;
62707;SDS011;48769;51.624;5.886;2023-04-12T09:03:25;13.18;;;6.82;;
62707;SDS011;48769;51.624;5.886;2023-04-12T09:05:50;12.18;;;6.18;;
62707;SDS011;48769;51.624;5.886;2023-04-12T09:08:15;17.17;;;6.85;;
62707;SDS011;48769;51.624;5.886;2023-04-12T09:10:41;17.88;;;6.68;;
62707;SDS011;48769;51.624;5.886;2023-04-12T09:13:06;14.48;;;6.10;;
62707;SDS011;48769;51.624;5.886;2023-04-12T09:15:33;17.45;;;6.30;;
62707;SDS011;48769;51.624;5.886;2023-04-12T09:18:03;25.65;;;7.32;;
62707;SDS011;48769;51.624;5.886;2023-04-12T09:20:28;12.43;;;6.78;;
62707;SDS011;48769;51.624;5.886;2023-04-12T09:22:54;17.73;;;4.90;;
62707;SDS011;48769;51.624;5.886;2023-04-12T09:25:34;18.95;;;5.35;;
62707;SDS011;48769;51.624;5.886;2023-04-12T09:28:01;16.15;;;4.68;;
62707;SDS011;48769;51.624;5.886;2023-04-12T09:30:28;14.43;;;4.13;;
62707;SDS011;48769;51.624;5.886;2023-04-12T09:32:54;17.00;;;4.45;;
62707;SDS011;48769;51.624;5.886;2023-04-12T09:35:32;16.48;;;4.90;;
62707;SDS011;48769;51.624;5.886;2023-04-12T09:40:32;12.93;;;3.50;;
62707;SDS011;48769;51.624;5.886;2023-04-12T09:43:00;10.30;;;3.20;;
62707;SDS011;48769;51.624;5.886;2023-04-12T09:45:26;15.07;;;3.47;;
62707;SDS011;48769;51.624;5.886;2023-04-12T09:47:52;11.68;;;3.75;;
62707;SDS011;48769;51.624;5.886;2023-04-12T09:50:20;14.13;;;2.78;;
62707;SDS011;48769;51.624;5.886;2023-04-12T09:52:50;15.93;;;3.67;;
62707;SDS011;48769;51.624;5.886;2023-04-12T09:55:17;14.82;;;3.22;;
62707;SDS011;48769;51.624;5.886;2023-04-12T09:57:45;19.48;;;4.75;;
62707;SDS011;48769;51.624;5.886;2023-04-12T10:00:14;15.23;;;4.47;;
62707;SDS011;48769;51.624;5.886;2023-04-12T10:02:53;15.25;;;4.68;;
62707;SDS011;48769;51.624;5.886;2023-04-12T10:05:20;15.02;;;4.60;;
62707;SDS011;48769;51.624;5.886;2023-04-12T10:07:49;15.75;;;4.60;;
62707;SDS011;48769;51.624;5.886;2023-04-12T10:10:15;17.27;;;5.25;;
62707;SDS011;48769;51.624;5.886;2023-04-12T10:12:42;16.30;;;5.00;;
62707;SDS011;48769;51.624;5.886;2023-04-12T10:15:10;17.35;;;5.75;;
62707;SDS011;48769;51.624;5.886;2023-04-12T10:17:45;21.05;;;5.30;;
62707;SDS011;48769;51.624;5.886;2023-04-12T10:20:16;21.40;;;6.18;;
62707;SDS011;48769;51.624;5.886;2023-04-12T10:22:43;16.35;;;4.95;;
62707;SDS011;48769;51.624;5.886;2023-04-12T10:25:11;28.48;;;6.30;;
62707;SDS011;48769;51.624;5.886;2023-04-12T10:27:43;23.13;;;5.78;;
62707;SDS011;48769;51.624;5.886;2023-04-12T10:32:45;26.23;;;5.82;;
62707;SDS011;48769;51.624;5.886;2023-04-12T10:35:10;17.05;;;5.68;;
62707;SDS011;48769;51.624;5.886;2023-04-12T10:40:30;22.27;;;5.93;;
62707;SDS011;48769;51.624;5.886;2023-04-12T10:45:47;23.20;;;6.32;;
62707;SDS011;48769;51.624;5.886;2023-04-12T10:48:29;20.70;;;5.68;;
62707;SDS011;48769;51.624;5.886;2023-04-12T10:53:52;25.33;;;6.93;;
62707;SDS011;48769;51.624;5.886;2023-04-12T10:58:56;20.30;;;6.18;;
62707;SDS011;48769;51.624;5.886;2023-04-12T11:01:23;18.25;;;5.93;;
62707;SDS011;48769;51.624;5.886;2023-04-12T11:06:46;18.42;;;6.18;;
62707;SDS011;48769;51.624;5.886;2023-04-12T11:11:41;23.38;;;6.35;;
62707;SDS011;48769;51.624;5.886;2023-04-12T11:14:11;18.15;;;6.93;;
62707;SDS011;48769;51.624;5.886;2023-04-12T11:19:29;22.80;;;7.53;;
62707;SDS011;48769;51.624;5.886;2023-04-12T11:21:56;18.70;;;6.38;;
62707;SDS011;48769;51.624;5.886;2023-04-12T11:24:23;22.75;;;8.52;;
62707;SDS011;48769;51.624;5.886;2023-04-12T11:26:48;23.17;;;8.60;;
62707;SDS011;48769;51.624;5.886;2023-04-12T11:29:14;27.15;;;8.95;;
62707;SDS011;48769;51.624;5.886;2023-04-12T11:31:47;18.77;;;8.02;;
62707;SDS011;48769;51.624;5.886;2023-04-12T11:34:14;21.00;;;8.80;;
62707;SDS011;48769;51.624;5.886;2023-04-12T11:36:41;25.55;;;9.07;;
62707;SDS011;48769;51.624;5.886;2023-04-12T11:39:06;32.42;;;8.48;;
62707;SDS011;48769;51.624;5.886;2023-04-12T11:41:32;22.25;;;5.97;;
62707;SDS011;48769;51.624;5.886;2023-04-12T11:44:00;18.10;;;5.07;;
62707;SDS011;48769;51.624;5.886;2023-04-12T11:46:25;17.08;;;5.28;;
62707;SDS011;48769;51.624;5.886;2023-04-12T11:48:57;19.17;;;5.13;;
62707;SDS011;48769;51.624;5.886;2023-04-12T11:51:23;19.55;;;4.78;;
62707;SDS011;48769;51.624;5.886;2023-04-12T11:53:54;16.83;;;6.03;;
62707;SDS011;48769;51.624;5.886;2023-04-12T11:56:21;21.05;;;9.75;;
62707;SDS011;48769;51.624;5.886;2023-04-12T11:58:46;21.85;;;10.20;;
62707;SDS011;48769;51.624;5.886;2023-04-12T12:01:15;23.00;;;9.23;;
62707;SDS011;48769;51.624;5.886;2023-04-12T12:03:42;18.08;;;7.30;;
62707;SDS011;48769;51.624;5.886;2023-04-12T12:06:09;25.83;;;8.85;;
62707;SDS011;48769;51.624;5.886;2023-04-12T12:08:35;23.25;;;8.32;;
62707;SDS011;48769;51.624;5.886;2023-04-12T12:11:01;27.73;;;9.88;;
62707;SDS011;48769;51.624;5.886;2023-04-12T12:13:27;29.33;;;9.93;;
62707;SDS011;48769;51.624;5.886;2023-04-12T12:16:08;22.55;;;10.45;;
62707;SDS011;48769;51.624;5.886;2023-04-12T12:18:38;31.42;;;11.32;;
62707;SDS011;48769;51.624;5.886;2023-04-12T12:21:06;28.83;;;10.07;;
62707;SDS011;48769;51.624;5.886;2023-04-12T12:23:33;28.17;;;11.20;;
62707;SDS011;48769;51.624;5.886;2023-04-12T12:25:59;23.40;;;10.80;;
62707;SDS011;48769;51.624;5.886;2023-04-12T12:28:27;29.48;;;11.23;;
62707;SDS011;48769;51.624;5.886;2023-04-12T12:30:53;22.63;;;10.55;;
62707;SDS011;48769;51.624;5.886;2023-04-12T12:33:20;27.88;;;11.38;;
62707;SDS011;48769;51.624;5.886;2023-04-12T12:35:45;27.92;;;10.25;;
62707;SDS011;48769;51.624;5.886;2023-04-12T12:38:10;23.00;;;9.38;;
62707;SDS011;48769;51.624;5.886;2023-04-12T12:40:36;21.77;;;8.68;;
62707;SDS011;48769;51.624;5.886;2023-04-12T12:43:02;26.30;;;8.82;;
62707;SDS011;48769;51.624;5.886;2023-04-12T12:45:30;19.67;;;7.45;;
62707;SDS011;48769;51.624;5.886;2023-04-12T12:48:01;20.88;;;7.53;;
62707;SDS011;48769;51.624;5.886;2023-04-12T12:50:28;18.33;;;6.60;;
62707;SDS011;48769;51.624;5.886;2023-04-12T12:52:59;15.73;;;7.45;;
62707;SDS011;48769;51.624;5.886;2023-04-12T12:55:25;18.13;;;7.95;;
62707;SDS011;48769;51.624;5.886;2023-04-12T12:57:52;18.42;;;5.82;;
62707;SDS011;48769;51.624;5.886;2023-04-12T13:00:20;21.13;;;6.80;;
62707;SDS011;48769;51.624;5.886;2023-04-12T13:02:46;16.02;;;7.03;;
62707;SDS011;48769;51.624;5.886;2023-04-12T13:05:12;11.57;;;4.18;;
62707;SDS011;48769;51.624;5.886;2023-04-12T13:07:38;12.90;;;3.30;;
62707;SDS011;48769;51.624;5.886;2023-04-12T13:10:03;14.07;;;4.13;;
62707;SDS011;48769;51.624;5.886;2023-04-12T13:12:29;9.48;;;3.22;;
62707;SDS011;48769;51.624;5.886;2023-04-12T13:14:55;13.57;;;3.83;;
62707;SDS011;48769;51.624;5.886;2023-04-12T13:17:21;12.75;;;4.05;;
62707;SDS011;48769;51.624;5.886;2023-04-12T13:19:46;12.50;;;3.60;;
62707;SDS011;48769;51.624;5.886;2023-04-12T13:22:13;16.45;;;4.53;;
62707;SDS011;48769;51.624;5.886;2023-04-12T13:24:38;14.80;;;3.70;;
62707;SDS011;48769;51.624;5.886;2023-04-12T13:27:04;15.30;;;3.53;;
62707;SDS011;48769;51.624;5.886;2023-04-12T13:29:29;9.68;;;2.72;;
62707;SDS011;48769;51.624;5.886;2023-04-12T13:31:54;13.95;;;3.85;;
62707;SDS011;48769;51.624;5.886;2023-04-12T13:34:20;16.35;;;3.83;;
62707;SDS011;48769;51.624;5.886;2023-04-12T13:36:46;14.48;;;3.40;;
62707;SDS011;48769;51.624;5.886;2023-04-12T13:39:11;11.15;;;3.17;;
62707;SDS011;48769;51.624;5.886;2023-04-12T13:41:36;11.07;;;2.88;;
62707;SDS011;48769;51.624;5.886;2023-04-12T13:44:02;13.48;;;3.03;;
62707;SDS011;48769;51.624;5.886;2023-04-12T13:46:29;14.93;;;3.47;;
62707;SDS011;48769;51.624;5.886;2023-04-12T13:48:55;13.25;;;3.25;;
62707;SDS011;48769;51.624;5.886;2023-04-12T13:51:20;11.85;;;3.28;;
62707;SDS011;48769;51.624;5.886;2023-04-12T13:53:45;17.00;;;3.78;;
62707;SDS011;48769;51.624;5.886;2023-04-12T13:56:11;11.98;;;4.43;;
62707;SDS011;48769;51.624;5.886;2023-04-12T13:58:36;16.10;;;4.78;;
62707;SDS011;48769;51.624;5.886;2023-04-12T14:01:05;16.02;;;4.57;;
62707;SDS011;48769;51.624;5.886;2023-04-12T14:03:31;18.55;;;4.72;;
62707;SDS011;48769;51.624;5.886;2023-04-12T14:05:57;14.10;;;3.95;;
62707;SDS011;48769;51.624;5.886;2023-04-12T14:08:22;11.30;;;4.03;;
62707;SDS011;48769;51.624;5.886;2023-04-12T14:10:48;12.88;;;3.22;;
62707;SDS011;48769;51.624;5.886;2023-04-12T14:13:13;8.85;;;2.33;;
62707;SDS011;48769;51.624;5.886;2023-04-12T14:15:38;4.03;;;1.40;;
62707;SDS011;48769;51.624;5.886;2023-04-12T14:18:04;6.40;;;1.48;;
62707;SDS011;48769;51.624;5.886;2023-04-12T14:20:29;2.95;;;1.20;;
62707;SDS011;48769;51.624;5.886;2023-04-12T14:22:54;5.60;;;1.30;;
62707;SDS011;48769;51.624;5.886;2023-04-12T14:25:20;3.63;;;0.93;;
62707;SDS011;48769;51.624;5.886;2023-04-12T14:27:46;5.18;;;1.35;;
62707;SDS011;48769;51.624;5.886;2023-04-12T14:30:11;2.35;;;0.95;;
62707;SDS011;48769;51.624;5.886;2023-04-12T14:32:37;5.03;;;1.00;;
62707;SDS011;48769;51.624;5.886;2023-04-12T14:35:02;2.17;;;0.77;;
62707;SDS011;48769;51.624;5.886;2023-04-12T14:37:29;4.97;;;1.58;;
62707;SDS011;48769;51.624;5.886;2023-04-12T14:39:55;5.72;;;1.40;;
62707;SDS011;48769;51.624;5.886;2023-04-12T14:42:20;3.38;;;0.80;;
62707;SDS011;48769;51.624;5.886;2023-04-12T14:44:46;5.53;;;1.33;;
62707;SDS011;48769;51.624;5.886;2023-04-12T14:47:11;4.00;;;1.17;;
62707;SDS011;48769;51.624;5.886;2023-04-12T14:49:36;4.43;;;1.02;;
62707;SDS011;48769;51.624;5.886;2023-04-12T14:52:02;4.15;;;1.02;;
62707;SDS011;48769;51.624;5.886;2023-04-12T14:54:28;3.65;;;1.20;;
62707;SDS011;48769;51.624;5.886;2023-04-12T14:56:54;2.63;;;1.10;;
62707;SDS011;48769;51.624;5.886;2023-04-12T14:59:20;4.65;;;1.90;;
62707;SDS011;48769;51.624;5.886;2023-04-12T15:01:46;3.65;;;1.88;;
62707;SDS011;48769;51.624;5.886;2023-04-12T15:04:11;4.18;;;1.80;;
62707;SDS011;48769;51.624;5.886;2023-04-12T15:06:37;2.85;;;1.50;;
62707;SDS011;48769;51.624;5.886;2023-04-12T15:09:06;3.47;;;1.90;;
62707;SDS011;48769;51.624;5.886;2023-04-12T15:11:33;3.53;;;2.08;;
62707;SDS011;48769;51.624;5.886;2023-04-12T15:14:02;7.57;;;2.58;;